New Ringgold, Pennsylvania
Current Conditions -  °F | °C
As of 2:15 PM on Saturday 25 Oct 2014 (Local Time) from KHZL Reporting Station
Clear Clear  
Wind Chill: 61°   Ceiling: Unl
Heat Index: 61°   Visibility: 10mi
Dew Point: 41°   Wind: 8mph
Humidity: 48%   Direction: 270°W
Pressure: 29.78"   Gusts: 21mph
Location:  40.69°N, 76°W
Report Text: KHZL 251815Z AUTO 27007G18KT 10SM CLR 16/05 A2978 RMK AO2
Loading
Personal Weather Stations






























Interactive Weather Map
Tropical Storm Tracking
New forecast layout! Learn more

10-Day Weather Forecast

Advertisements
Track Severe Weather on mobile